Time;durP1;ratioP1;P1;durP2;ratioP2;P2;SDS_P1;SDS_P2;PMS_P1;PMS_P2;Temp;Humidity;BMP_temperature;BMP_pressure;BME280_temperature;BME280_humidity;BME280_pressure;Samples;Min_cycle;Max_cycle;Signal;HPM_P1;HPM_P2
2021/08/29 00:01:49;;;;;;;0.50;0.30;;;15.20;99.90;;;;;;5055568;28;20473;-81
2021/08/29 00:04:16;;;;;;;0.50;0.30;;;15.20;99.90;;;;;;5055234;28;20780;-81
2021/08/29 00:06:44;;;;;;;0.50;0.40;;;15.20;99.90;;;;;;5055595;28;20441;-81
2021/08/29 00:09:11;;;;;;;0.50;0.30;;;15.20;99.90;;;;;;5054751;28;20456;-81
2021/08/29 00:11:38;;;;;;;0.50;0.40;;;15.20;99.90;;;;;;5054196;28;20458;-82
2021/08/29 00:14:05;;;;;;;0.50;0.30;;;15.20;99.90;;;;;;5054893;28;20449;-81
2021/08/29 00:16:32;;;;;;;0.50;0.30;;;15.20;99.90;;;;;;5054519;28;20469;-81
2021/08/29 00:18:59;;;;;;;0.50;0.40;;;15.20;99.90;;;;;;5055344;28;20887;-81
2021/08/29 00:21:26;;;;;;;0.50;0.40;;;15.20;99.90;;;;;;5058818;28;20468;-81
2021/08/29 00:23:54;;;;;;;0.50;0.40;;;15.10;99.90;;;;;;5058235;28;20524;-81
2021/08/29 00:26:21;;;;;;;0.50;0.50;;;15.10;99.90;;;;;;5058579;28;20775;-81
2021/08/29 00:28:47;;;;;;;0.50;0.30;;;15.10;99.90;;;;;;5058217;28;20434;-81
2021/08/29 00:31:14;;;;;;;0.50;0.40;;;15.10;99.90;;;;;;5057768;28;20824;-81
2021/08/29 00:33:41;;;;;;;0.50;0.40;;;15.10;99.90;;;;;;5058360;28;20823;-81
2021/08/29 00:36:08;;;;;;;0.50;0.40;;;15.10;99.90;;;;;;5058557;28;20484;-81
2021/08/29 00:38:35;;;;;;;0.50;0.30;;;15.00;99.90;;;;;;5058439;28;20437;-81
2021/08/29 00:41:06;;;;;;;1.00;0.80;;;15.00;99.90;;;;;;5057916;28;20733;-81
2021/08/29 00:43:33;;;;;;;0.50;0.30;;;15.10;99.90;;;;;;5057828;28;20450;-81
2021/08/29 00:45:59;;;;;;;0.50;0.40;;;15.10;99.90;;;;;;5058183;28;20440;-81
2021/08/29 00:48:26;;;;;;;0.50;0.40;;;15.00;99.90;;;;;;5058283;28;20451;-81
2021/08/29 00:50:55;;;;;;;0.50;0.30;;;15.00;99.90;;;;;;5056996;28;20453;-81
2021/08/29 00:53:22;;;;;;;1.43;1.33;;;15.00;99.90;;;;;;5057812;28;20437;-81
2021/08/29 00:55:49;;;;;;;0.50;0.40;;;15.00;99.90;;;;;;5057335;28;20437;-80
2021/08/29 00:58:18;;;;;;;0.50;0.30;;;15.00;99.90;;;;;;5057558;28;20477;-81
2021/08/29 01:00:46;;;;;;;4.83;2.63;;;15.00;99.90;;;;;;5057248;28;20430;-81
2021/08/29 01:03:16;;;;;;;0.50;0.30;;;15.00;99.90;;;;;;5057680;28;20441;-81
2021/08/29 01:05:48;;;;;;;0.50;0.30;;;15.00;99.90;;;;;;5058850;28;20448;-81
2021/08/29 01:08:18;;;;;;;0.50;0.33;;;15.10;99.90;;;;;;5057299;28;20422;-81
2021/08/29 01:10:51;;;;;;;0.50;0.30;;;15.10;99.90;;;;;;5056922;28;20438;-81
2021/08/29 01:13:25;;;;;;;0.50;0.30;;;15.00;99.90;;;;;;5058199;28;20632;-81
2021/08/29 01:15:55;;;;;;;0.50;0.30;;;15.00;99.90;;;;;;5058017;28;20430;-81
2021/08/29 01:18:25;;;;;;;0.50;0.30;;;15.10;99.90;;;;;;5058368;28;20481;-81
2021/08/29 01:20:58;;;;;;;0.50;0.33;;;15.10;99.90;;;;;;5058027;28;20445;-81
2021/08/29 01:23:26;;;;;;;0.50;0.43;;;15.00;99.90;;;;;;5059641;28;20424;-82
2021/08/29 01:25:56;;;;;;;0.50;0.30;;;15.10;99.90;;;;;;5058621;28;20438;-81
2021/08/29 01:28:35;;;;;;;0.50;0.40;;;15.00;99.90;;;;;;5058518;28;20430;-81
2021/08/29 01:31:04;;;;;;;0.50;0.40;;;15.00;99.90;;;;;;5056760;28;20491;-81
2021/08/29 01:33:31;;;;;;;0.50;0.37;;;15.00;99.90;;;;;;5059076;28;20445;-81
2021/08/29 01:35:58;;;;;;;0.50;0.30;;;15.00;99.90;;;;;;5058269;28;20496;-80
2021/08/29 01:38:25;;;;;;;0.50;0.30;;;15.00;99.90;;;;;;5058155;28;20469;-81
2021/08/29 01:40:53;;;;;;;0.50;0.30;;;15.00;99.90;;;;;;5058227;28;20444;-81
2021/08/29 01:43:20;;;;;;;0.50;0.40;;;15.00;99.90;;;;;;5058676;28;20456;-82
2021/08/29 01:45:47;;;;;;;0.50;0.30;;;15.00;99.90;;;;;;5058009;28;20513;-78
2021/08/29 01:48:15;;;;;;;0.50;0.30;;;15.00;99.90;;;;;;5058192;28;20430;-81
2021/08/29 01:50:42;;;;;;;0.60;0.40;;;15.00;99.90;;;;;;5058566;28;20437;-81
2021/08/29 01:53:09;;;;;;;0.50;0.30;;;15.00;99.90;;;;;;5058886;28;20442;-81
2021/08/29 01:55:36;;;;;;;0.50;0.40;;;15.00;99.90;;;;;;5058422;28;20445;-81
2021/08/29 01:58:03;;;;;;;0.50;0.40;;;15.00;99.90;;;;;;5058566;28;20480;-82
2021/08/29 02:00:31;;;;;;;0.50;0.40;;;15.00;99.90;;;;;;5058661;28;20803;-81
2021/08/29 02:02:57;;;;;;;0.50;0.30;;;15.00;99.90;;;;;;5058598;28;20563;-81
2021/08/29 02:05:26;;;;;;;0.50;0.30;;;15.00;99.90;;;;;;5059367;28;20449;-81
2021/08/29 02:07:57;;;;;;;0.50;0.30;;;15.00;99.90;;;;;;5058537;28;20448;-80
2021/08/29 02:10:25;;;;;;;0.50;0.30;;;15.00;99.90;;;;;;5057647;28;20449;-81
2021/08/29 02:12:58;;;;;;;0.50;0.40;;;15.00;99.90;;;;;;5058211;28;20466;-81
2021/08/29 02:15:30;;;;;;;0.50;0.30;;;15.00;99.90;;;;;;5058635;28;20453;-81
2021/08/29 02:17:58;;;;;;;0.50;0.40;;;15.00;99.90;;;;;;5057849;28;20488;-81
2021/08/29 02:20:29;;;;;;;0.50;0.30;;;15.00;99.90;;;;;;5057440;28;20456;-81
2021/08/29 02:22:57;;;;;;;0.50;0.40;;;15.00;99.90;;;;;;5058113;28;20812;-80
2021/08/29 02:25:23;;;;;;;0.50;0.30;;;15.00;99.90;;;;;;5058364;28;20441;-81
2021/08/29 02:27:50;;;;;;;0.50;0.40;;;15.00;99.90;;;;;;5058669;28;20434;-79
2021/08/29 02:30:17;;;;;;;0.50;0.33;;;14.90;99.90;;;;;;5057273;28;20449;-81
2021/08/29 02:32:45;;;;;;;0.50;0.40;;;15.00;99.90;;;;;;5058332;28;20469;-79
2021/08/29 02:35:13;;;;;;;0.50;0.33;;;14.90;99.90;;;;;;5058282;28;20437;-79
2021/08/29 02:37:41;;;;;;;0.50;0.30;;;15.00;99.90;;;;;;5058345;28;20481;-81
2021/08/29 02:40:10;;;;;;;0.50;0.40;;;15.00;99.90;;;;;;5057344;28;20438;-80
2021/08/29 02:42:37;;;;;;;0.60;0.60;;;15.00;99.90;;;;;;5057552;28;20476;-81
2021/08/29 02:45:06;;;;;;;1.53;1.43;;;15.00;99.90;;;;;;5058053;28;20446;-81
2021/08/29 02:47:33;;;;;;;0.50;0.30;;;15.00;99.90;;;;;;5057636;28;20437;-80
2021/08/29 02:50:00;;;;;;;0.50;0.30;;;15.00;99.90;;;;;;5058000;28;20468;-81
2021/08/29 02:52:28;;;;;;;0.50;0.30;;;14.90;99.90;;;;;;5057719;28;20465;-81
2021/08/29 02:54:58;;;;;;;0.50;0.37;;;14.90;99.90;;;;;;5057374;28;20445;-80
2021/08/29 02:57:31;;;;;;;0.50;0.30;;;14.90;99.90;;;;;;5057556;28;20473;-79
2021/08/29 02:59:58;;;;;;;0.50;0.40;;;14.90;99.90;;;;;;5057239;28;20899;-81
2021/08/29 03:02:25;;;;;;;0.50;0.40;;;14.90;99.90;;;;;;5056687;28;20470;-80
2021/08/29 03:04:52;;;;;;;0.50;0.40;;;14.80;99.90;;;;;;5057554;28;20449;-82
2021/08/29 03:07:19;;;;;;;0.50;0.40;;;14.80;99.90;;;;;;5057325;28;20446;-80
2021/08/29 03:09:46;;;;;;;0.50;0.30;;;14.80;99.90;;;;;;5057518;28;20445;-81
2021/08/29 03:12:15;;;;;;;0.50;0.30;;;14.80;99.90;;;;;;5056932;28;20462;-82
2021/08/29 03:14:43;;;;;;;0.50;0.33;;;14.80;99.90;;;;;;5057383;28;20452;-81
2021/08/29 03:17:10;;;;;;;0.50;0.30;;;14.80;99.90;;;;;;5057093;28;20866;-81
2021/08/29 03:19:38;;;;;;;0.50;0.30;;;14.80;99.90;;;;;;5057505;28;20449;-82
2021/08/29 03:22:06;;;;;;;0.50;0.30;;;14.80;99.90;;;;;;5056332;28;20465;-81
2021/08/29 03:24:33;;;;;;;0.50;0.30;;;14.80;99.90;;;;;;5057295;28;20446;-79
2021/08/29 03:27:00;;;;;;;0.50;0.40;;;14.80;99.90;;;;;;5056204;28;20441;-81
2021/08/29 03:29:28;;;;;;;0.50;0.40;;;14.80;99.90;;;;;;5057138;28;20803;-81
2021/08/29 03:31:55;;;;;;;0.50;0.50;;;14.80;99.90;;;;;;5056829;28;20472;-81
2021/08/29 03:34:24;;;;;;;0.50;0.30;;;14.80;99.90;;;;;;5054165;28;20449;-82
2021/08/29 03:36:51;;;;;;;0.50;0.40;;;14.80;99.90;;;;;;5043088;28;20458;-80
2021/08/29 03:39:18;;;;;;;0.50;0.40;;;14.80;99.90;;;;;;5057253;28;20437;-82
2021/08/29 03:41:45;;;;;;;0.50;0.40;;;14.80;99.90;;;;;;5056916;28;20472;-81
2021/08/29 03:44:14;;;;;;;0.50;0.30;;;14.80;99.90;;;;;;5057497;28;20449;-81
2021/08/29 03:46:42;;;;;;;0.50;0.40;;;14.80;99.90;;;;;;5057394;28;20444;-80
2021/08/29 03:49:10;;;;;;;0.50;0.33;;;14.80;99.90;;;;;;5057069;28;20438;-82
2021/08/29 03:51:37;;;;;;;0.50;0.40;;;14.80;99.90;;;;;;5056611;28;20464;-81
2021/08/29 03:54:06;;;;;;;0.50;0.30;;;14.80;99.90;;;;;;5057494;28;20449;-81
2021/08/29 03:56:35;;;;;;;1.10;0.90;;;14.80;99.90;;;;;;5062326;28;20442;-82
2021/08/29 03:59:02;;;;;;;0.50;0.30;;;14.80;99.90;;;;;;5061273;28;20488;-81
2021/08/29 04:01:30;;;;;;;0.60;0.57;;;14.80;99.90;;;;;;5060971;28;20480;-82
2021/08/29 04:03:58;;;;;;;0.67;0.60;;;14.80;99.90;;;;;;5061060;28;20942;-81
2021/08/29 04:06:27;;;;;;;0.50;0.30;;;14.80;99.90;;;;;;5061501;28;21001;-82
2021/08/29 04:08:56;;;;;;;0.50;0.40;;;14.70;99.90;;;;;;5061318;28;20438;-78
2021/08/29 04:11:26;;;;;;;0.50;0.37;;;14.80;99.90;;;;;;5062142;28;20529;-82
2021/08/29 04:13:54;;;;;;;0.50;0.30;;;14.80;99.90;;;;;;5061676;28;20447;-81
2021/08/29 04:16:21;;;;;;;0.50;0.40;;;14.80;99.90;;;;;;5061085;28;20437;-82
2021/08/29 04:18:49;;;;;;;1.57;1.47;;;14.80;99.90;;;;;;5061176;28;21207;-81
2021/08/29 04:21:19;;;;;;;0.50;0.40;;;14.80;99.90;;;;;;5061042;28;20461;-81
2021/08/29 04:23:46;;;;;;;0.50;0.33;;;14.90;99.90;;;;;;5061956;28;20447;-78
2021/08/29 04:26:13;;;;;;;0.50;0.40;;;14.80;99.90;;;;;;5061508;28;20444;-81
2021/08/29 04:28:40;;;;;;;0.50;0.40;;;14.80;99.90;;;;;;5060739;28;20811;-80
2021/08/29 04:31:10;;;;;;;0.50;0.40;;;14.80;99.90;;;;;;5059160;28;20460;-81
2021/08/29 04:33:37;;;;;;;0.50;0.40;;;14.80;99.90;;;;;;5060410;28;20433;-81
2021/08/29 04:36:04;;;;;;;0.60;0.60;;;14.80;99.90;;;;;;5060494;28;20444;-80
2021/08/29 04:38:33;;;;;;;0.50;0.40;;;14.90;99.90;;;;;;5064328;28;20789;-80
2021/08/29 04:40:59;;;;;;;0.50;0.30;;;14.90;99.90;;;;;;5058244;28;20939;-80
2021/08/29 04:43:26;;;;;;;0.50;0.40;;;14.90;99.90;;;;;;5059155;28;20437;-81
2021/08/29 04:45:53;;;;;;;0.50;0.40;;;14.90;99.90;;;;;;5059192;28;20448;-81
2021/08/29 04:48:20;;;;;;;0.50;0.30;;;14.90;99.90;;;;;;5058362;28;20437;-81
2021/08/29 04:50:47;;;;;;;0.50;0.30;;;14.90;99.90;;;;;;5058042;28;20453;-80
2021/08/29 04:53:14;;;;;;;0.50;0.30;;;15.00;99.90;;;;;;5058752;28;20441;-81
2021/08/29 04:55:42;;;;;;;1.43;0.77;;;14.90;99.90;;;;;;5057786;28;20441;-80
2021/08/29 04:58:09;;;;;;;0.50;0.40;;;14.90;99.90;;;;;;5058464;28;20469;-80
2021/08/29 05:00:36;;;;;;;0.67;0.67;;;15.00;99.90;;;;;;5058866;28;20441;-80
2021/08/29 05:03:03;;;;;;;1.00;0.90;;;15.00;99.90;;;;;;5058035;28;20461;-81
2021/08/29 05:05:29;;;;;;;0.50;0.30;;;15.00;99.90;;;;;;5057559;28;20437;-81
2021/08/29 05:07:56;;;;;;;0.50;0.33;;;15.00;99.90;;;;;;5058293;28;20445;-81
2021/08/29 05:10:23;;;;;;;0.50;0.40;;;15.00;99.90;;;;;;5057834;28;20450;-81
2021/08/29 05:12:52;;;;;;;2.00;1.90;;;15.00;99.90;;;;;;5057537;28;21005;-81
2021/08/29 05:15:18;;;;;;;0.50;0.40;;;15.10;99.90;;;;;;5058504;28;20438;-79
2021/08/29 05:17:45;;;;;;;0.63;0.63;;;15.00;99.90;;;;;;5058043;28;20970;-80
2021/08/29 05:20:13;;;;;;;0.50;0.40;;;15.10;99.90;;;;;;5057299;28;20441;-81
2021/08/29 05:22:39;;;;;;;0.50;0.30;;;15.10;99.90;;;;;;5057693;28;20487;-80
2021/08/29 05:25:07;;;;;;;0.50;0.40;;;15.10;99.90;;;;;;5057392;28;20449;-81
2021/08/29 05:27:34;;;;;;;0.50;0.30;;;15.10;99.90;;;;;;5057965;28;20438;-80
2021/08/29 05:30:02;;;;;;;0.50;0.40;;;15.20;99.90;;;;;;5057763;28;20446;-81
2021/08/29 05:32:28;;;;;;;0.50;0.30;;;15.10;99.90;;;;;;5057364;28;20454;-81
2021/08/29 05:34:55;;;;;;;0.50;0.40;;;15.10;99.90;;;;;;5057395;28;20433;-81
2021/08/29 05:37:22;;;;;;;0.50;0.50;;;15.20;99.90;;;;;;5057433;28;20452;-81
2021/08/29 05:39:49;;;;;;;1.37;0.70;;;15.20;99.90;;;;;;5057552;28;20442;-80
2021/08/29 05:42:15;;;;;;;0.50;0.37;;;15.20;99.90;;;;;;5057173;28;20450;-81
2021/08/29 05:44:42;;;;;;;0.50;0.30;;;15.20;99.90;;;;;;5057425;28;20435;-80
2021/08/29 05:47:10;;;;;;;0.50;0.40;;;15.30;99.90;;;;;;5056863;28;20441;-81
2021/08/29 05:49:37;;;;;;;0.50;0.30;;;15.30;99.90;;;;;;5057540;28;20429;-81
2021/08/29 05:52:05;;;;;;;4.33;2.10;;;15.40;99.90;;;;;;5057319;28;20457;-81
2021/08/29 05:54:31;;;;;;;0.50;0.30;;;15.40;99.90;;;;;;5057926;28;20434;-81
2021/08/29 05:56:58;;;;;;;0.70;0.50;;;15.40;99.90;;;;;;5057363;28;20446;-80
2021/08/29 05:59:25;;;;;;;0.50;0.30;;;15.50;99.90;;;;;;5057858;28;20485;-81
2021/08/29 06:01:52;;;;;;;0.50;0.40;;;15.50;99.90;;;;;;5056665;28;20473;-81
2021/08/29 06:04:20;;;;;;;0.50;0.40;;;15.50;99.90;;;;;;5054869;28;20450;-80
2021/08/29 06:06:46;;;;;;;0.50;0.40;;;15.50;99.90;;;;;;5055652;28;20793;-82
2021/08/29 06:09:13;;;;;;;0.50;0.37;;;15.50;99.90;;;;;;5054931;28;20831;-81
2021/08/29 06:11:40;;;;;;;0.50;0.30;;;15.50;99.90;;;;;;5054734;28;20474;-81
2021/08/29 06:14:07;;;;;;;0.50;0.40;;;15.60;99.90;;;;;;5055216;28;20459;-81
2021/08/29 06:16:34;;;;;;;0.50;0.30;;;15.60;99.90;;;;;;5054795;28;20468;-81
2021/08/29 06:19:01;;;;;;;1.00;1.00;;;15.60;99.90;;;;;;5054179;28;20474;-81
2021/08/29 06:21:29;;;;;;;0.50;0.40;;;15.70;99.90;;;;;;5054430;28;20462;-81
2021/08/29 06:23:56;;;;;;;0.50;0.30;;;15.70;99.90;;;;;;5054582;28;20456;-82
2021/08/29 06:26:23;;;;;;;0.50;0.30;;;15.70;99.90;;;;;;5056035;28;20444;-79
2021/08/29 06:28:50;;;;;;;0.50;0.40;;;15.70;99.90;;;;;;5056345;28;20437;-82
2021/08/29 06:31:16;;;;;;;0.50;0.37;;;15.70;99.90;;;;;;5054673;28;20753;-83
2021/08/29 06:33:43;;;;;;;0.50;0.33;;;15.80;99.90;;;;;;5055841;28;20450;-81
2021/08/29 06:36:10;;;;;;;0.50;0.40;;;15.90;99.90;;;;;;5055736;28;20479;-80
2021/08/29 06:38:39;;;;;;;0.50;0.30;;;15.90;99.90;;;;;;5055158;28;20477;-82
2021/08/29 06:41:06;;;;;;;3.87;1.13;;;16.00;99.90;;;;;;5054724;28;20449;-82
2021/08/29 06:43:33;;;;;;;0.50;0.30;;;16.00;99.90;;;;;;5055066;28;20438;-82
2021/08/29 06:46:00;;;;;;;0.50;0.30;;;16.00;99.90;;;;;;5054680;28;20454;-82
2021/08/29 06:48:26;;;;;;;0.50;0.40;;;16.00;99.90;;;;;;5054746;28;20434;-82
2021/08/29 06:50:53;;;;;;;0.50;0.30;;;16.10;99.90;;;;;;5054185;28;20451;-82
2021/08/29 06:53:20;;;;;;;0.50;0.30;;;16.10;99.90;;;;;;5054834;28;20441;-82
2021/08/29 06:55:48;;;;;;;0.50;0.40;;;16.10;99.90;;;;;;5054253;28;20452;-82
2021/08/29 06:58:15;;;;;;;0.50;0.30;;;16.10;99.90;;;;;;5054283;28;20476;-82
2021/08/29 07:00:42;;;;;;;0.50;0.30;;;16.10;99.90;;;;;;5053922;28;20442;-82
2021/08/29 07:03:08;;;;;;;0.50;0.40;;;16.10;99.90;;;;;;5054350;28;20426;-82
2021/08/29 07:05:36;;;;;;;0.50;0.40;;;16.00;99.90;;;;;;5053967;28;20442;-82
2021/08/29 07:08:03;;;;;;;0.50;0.30;;;15.80;99.90;;;;;;5054359;28;20672;-83
2021/08/29 07:10:30;;;;;;;0.50;0.30;;;15.80;99.90;;;;;;5053568;28;20528;-82
2021/08/29 07:12:58;;;;;;;0.50;0.30;;;15.70;99.90;;;;;;5054442;28;20453;-82
2021/08/29 07:15:25;;;;;;;0.50;0.30;;;15.60;99.90;;;;;;5054021;28;20442;-81
2021/08/29 07:17:52;;;;;;;0.50;0.30;;;15.60;99.90;;;;;;5053548;28;20441;-82
2021/08/29 07:20:19;;;;;;;1.13;1.13;;;15.60;99.90;;;;;;5053512;28;20473;-82
2021/08/29 07:22:45;;;;;;;0.50;0.30;;;15.60;99.90;;;;;;5054081;28;20464;-76
2021/08/29 07:25:12;;;;;;;0.50;0.37;;;15.60;99.90;;;;;;5053311;28;20441;-81
2021/08/29 07:27:39;;;;;;;0.50;0.40;;;15.50;99.90;;;;;;5054017;28;20945;-83
2021/08/29 07:30:08;;;;;;;0.50;0.30;;;15.50;99.90;;;;;;5052544;28;20441;-80
2021/08/29 07:32:35;;;;;;;0.50;0.40;;;15.40;99.90;;;;;;5053469;28;20823;-82
2021/08/29 07:35:01;;;;;;;0.50;0.30;;;15.50;99.90;;;;;;5053459;28;20931;-82
2021/08/29 07:37:28;;;;;;;0.50;0.30;;;15.50;99.90;;;;;;5054384;28;20437;-80
2021/08/29 07:39:55;;;;;;;0.53;0.33;;;15.60;99.90;;;;;;5052962;28;20469;-77
2021/08/29 07:42:22;;;;;;;0.50;0.40;;;15.50;99.90;;;;;;5052828;28;20464;-80
2021/08/29 07:44:49;;;;;;;0.50;0.40;;;15.50;99.90;;;;;;5053664;28;20446;-76
2021/08/29 07:47:17;;;;;;;0.80;0.70;;;15.50;99.90;;;;;;5053356;28;20446;-80
2021/08/29 07:49:44;;;;;;;0.50;0.40;;;15.50;99.90;;;;;;5053476;28;20452;-80
2021/08/29 07:52:11;;;;;;;0.50;0.50;;;15.40;99.90;;;;;;5052747;28;20670;-80
2021/08/29 07:54:38;;;;;;;1.33;1.23;;;15.40;99.90;;;;;;5052999;28;20442;-80
2021/08/29 07:57:05;;;;;;;0.50;0.30;;;15.30;99.90;;;;;;5053292;28;20833;-79
2021/08/29 07:59:32;;;;;;;0.50;0.30;;;15.30;99.90;;;;;;5052357;28;20836;-79
2021/08/29 08:01:59;;;;;;;0.50;0.30;;;15.30;99.90;;;;;;5051620;28;20820;-80
2021/08/29 08:04:27;;;;;;;0.50;0.30;;;15.30;99.90;;;;;;5052865;28;20434;-80
2021/08/29 08:06:53;;;;;;;0.50;0.33;;;15.30;99.90;;;;;;5052632;28;20441;-78
2021/08/29 08:09:20;;;;;;;0.50;0.40;;;15.30;99.90;;;;;;5052582;28;20430;-80
2021/08/29 08:11:47;;;;;;;0.50;0.30;;;15.30;99.90;;;;;;5052131;28;20468;-81
2021/08/29 08:14:14;;;;;;;0.50;0.40;;;15.30;99.90;;;;;;5052894;28;20437;-79
2021/08/29 08:16:40;;;;;;;0.50;0.30;;;15.30;99.90;;;;;;5052227;28;20441;-79
2021/08/29 08:19:07;;;;;;;0.50;0.30;;;15.30;99.90;;;;;;5052188;28;20477;-82
2021/08/29 08:21:35;;;;;;;0.50;0.40;;;15.30;99.90;;;;;;5052711;28;20453;-80
2021/08/29 08:24:02;;;;;;;0.50;0.30;;;15.30;99.90;;;;;;5052698;28;20885;-80
2021/08/29 08:26:29;;;;;;;0.50;0.30;;;15.30;99.90;;;;;;5052733;28;20444;-80
2021/08/29 08:28:57;;;;;;;0.50;0.30;;;15.40;99.90;;;;;;5052363;28;20967;-80
2021/08/29 08:31:23;;;;;;;0.60;0.60;;;15.40;99.90;;;;;;5052749;28;20820;-82
2021/08/29 08:33:50;;;;;;;0.50;0.40;;;15.40;99.90;;;;;;5053177;28;20438;-80
2021/08/29 08:36:17;;;;;;;0.50;0.40;;;15.30;99.90;;;;;;5052514;28;20446;-80
2021/08/29 08:38:45;;;;;;;0.60;0.40;;;15.30;99.90;;;;;;5051958;28;20484;-79
2021/08/29 08:41:12;;;;;;;0.97;0.97;;;15.20;99.90;;;;;;5054151;28;20468;-79
2021/08/29 08:43:38;;;;;;;0.50;0.40;;;15.20;99.90;;;;;;5056503;28;20437;-80
2021/08/29 08:46:06;;;;;;;0.50;0.30;;;15.20;99.90;;;;;;5055831;28;20433;-81
2021/08/29 08:48:34;;;;;;;0.50;0.40;;;15.10;99.90;;;;;;5055635;28;20444;-79
2021/08/29 08:51:02;;;;;;;0.50;0.37;;;15.20;99.90;;;;;;5057168;28;20449;-78
2021/08/29 08:53:32;;;;;;;0.50;0.40;;;15.20;99.90;;;;;;5056337;28;20439;-80
2021/08/29 08:56:02;;;;;;;0.80;0.80;;;15.20;99.90;;;;;;5056528;28;20827;-80
2021/08/29 08:58:30;;;;;;;0.50;0.30;;;15.20;99.90;;;;;;5056370;28;20963;-80
2021/08/29 09:00:57;;;;;;;0.50;0.30;;;15.20;99.90;;;;;;5055043;28;20445;-79
2021/08/29 09:03:25;;;;;;;0.50;0.30;;;15.20;99.90;;;;;;5055951;28;20430;-79
2021/08/29 09:05:52;;;;;;;0.50;0.30;;;15.20;99.90;;;;;;5055949;28;20449;-78
2021/08/29 09:08:19;;;;;;;0.50;0.30;;;15.30;99.90;;;;;;5055858;28;20433;-78
2021/08/29 09:10:46;;;;;;;0.50;0.30;;;15.30;99.90;;;;;;5054767;28;20434;-80
2021/08/29 09:13:14;;;;;;;0.50;0.30;;;15.30;99.90;;;;;;5055933;28;21007;-82
2021/08/29 09:15:41;;;;;;;0.50;0.30;;;15.30;99.90;;;;;;5056215;28;20441;-79
2021/08/29 09:18:12;;;;;;;0.50;0.30;;;15.40;99.90;;;;;;5055898;28;20443;-83
2021/08/29 09:20:40;;;;;;;1.27;0.97;;;15.40;99.90;;;;;;5055375;28;21009;-82
2021/08/29 09:23:09;;;;;;;1.23;0.83;;;15.50;99.90;;;;;;5056221;28;20911;-81
2021/08/29 09:25:41;;;;;;;0.60;0.60;;;15.50;99.90;;;;;;5055251;28;20441;-79
2021/08/29 09:28:10;;;;;;;0.50;0.40;;;15.50;99.90;;;;;;5055789;28;20462;-81
2021/08/29 09:30:42;;;;;;;0.50;0.30;;;15.50;99.90;;;;;;5055489;28;20802;-79
2021/08/29 09:33:09;;;;;;;0.50;0.40;;;15.60;99.90;;;;;;5055449;28;20445;-81
2021/08/29 09:35:37;;;;;;;1.67;1.07;;;15.50;99.90;;;;;;5056338;28;20475;-81
2021/08/29 09:38:06;;;;;;;0.50;0.40;;;15.50;99.90;;;;;;5056706;28;20437;-80
2021/08/29 09:40:35;;;;;;;0.50;0.30;;;15.40;99.90;;;;;;5055723;28;20507;-81
2021/08/29 09:43:03;;;;;;;0.50;0.40;;;15.50;99.90;;;;;;5056516;28;20462;-81
2021/08/29 09:45:32;;;;;;;0.50;0.30;;;15.40;99.90;;;;;;5056946;28;20448;-81
2021/08/29 09:48:02;;;;;;;0.50;0.30;;;15.30;99.90;;;;;;5057362;28;20449;-81
2021/08/29 09:50:30;;;;;;;0.50;0.30;;;15.40;99.90;;;;;;5056766;28;20433;-81
2021/08/29 09:53:04;;;;;;;0.50;0.30;;;15.40;99.90;;;;;;5055569;28;20465;-81
2021/08/29 09:55:34;;;;;;;0.53;0.53;;;15.40;99.90;;;;;;5056682;28;20857;-82
2021/08/29 09:58:19;;;;;;;0.50;0.40;;;15.40;99.90;;;;;;5056672;28;20444;-82
2021/08/29 10:01:11;;;;;;;0.50;0.40;;;15.30;99.90;;;;;;5055882;28;20626;-80
2021/08/29 10:03:41;;;;;;;0.50;0.40;;;15.20;99.90;;;;;;5055788;28;20440;-79
2021/08/29 10:06:16;;;;;;;0.50;0.30;;;15.20;99.90;;;;;;5056342;28;20437;-81
2021/08/29 10:08:43;;;;;;;0.50;0.30;;;15.20;99.90;;;;;;5055703;28;20437;-81
2021/08/29 10:11:11;;;;;;;0.50;0.40;;;15.30;99.90;;;;;;5055334;28;20461;-81
2021/08/29 10:13:38;;;;;;;0.50;0.30;;;15.30;99.90;;;;;;5056399;28;20433;-81
2021/08/29 10:16:06;;;;;;;0.50;0.30;;;15.30;99.90;;;;;;5055181;28;20964;-81
2021/08/29 10:18:36;;;;;;;0.50;0.40;;;15.30;99.90;;;;;;5055176;28;20433;-81
2021/08/29 10:21:05;;;;;;;0.50;0.30;;;15.40;99.90;;;;;;5056696;28;21833;-79
2021/08/29 10:23:32;;;;;;;0.50;0.30;;;15.50;99.90;;;;;;5055641;28;20441;-80
2021/08/29 10:26:00;;;;;;;0.50;0.30;;;15.60;99.90;;;;;;5055998;28;20803;-81
2021/08/29 10:28:30;;;;;;;0.50;0.30;;;15.60;99.90;;;;;;5056099;28;20441;-81
2021/08/29 10:30:59;;;;;;;0.60;0.50;;;15.70;99.90;;;;;;5055456;28;20441;-81
2021/08/29 10:33:26;;;;;;;0.50;0.30;;;15.80;99.90;;;;;;5055315;28;20504;-80
2021/08/29 10:35:54;;;;;;;0.50;0.30;;;15.70;99.90;;;;;;5055065;28;20438;-78
2021/08/29 10:38:22;;;;;;;0.50;0.40;;;15.70;99.90;;;;;;5054698;28;20807;-80
2021/08/29 10:40:50;;;;;;;0.50;0.30;;;15.70;99.90;;;;;;5053586;28;20478;-80
2021/08/29 10:43:17;;;;;;;0.83;0.73;;;15.70;99.90;;;;;;5054698;28;20481;-81
2021/08/29 10:45:44;;;;;;;0.50;0.30;;;15.80;99.90;;;;;;5054692;28;20453;-80
2021/08/29 10:48:15;;;;;;;1.70;0.70;;;15.90;99.90;;;;;;5054499;28;20442;-81
2021/08/29 10:50:46;;;;;;;0.50;0.30;;;16.00;99.90;;;;;;5055301;28;20437;-81
2021/08/29 10:53:35;;;;;;;0.50;0.30;;;16.00;99.90;;;;;;5055394;28;20613;-81
2021/08/29 10:56:33;;;;;;;0.50;0.30;;;16.20;99.90;;;;;;5055354;28;20426;-81
2021/08/29 10:59:28;;;;;;;0.50;0.30;;;16.20;99.90;;;;;;5054704;28;20460;-84
2021/08/29 11:02:12;;;;;;;0.50;0.30;;;16.30;99.90;;;;;;5053767;28;20894;-83
2021/08/29 11:04:47;;;;;;;0.50;0.30;;;16.30;99.90;;;;;;5054744;28;20433;-82
2021/08/29 11:07:33;;;;;;;0.50;0.30;;;16.30;99.90;;;;;;5054349;28;20438;-83
2021/08/29 11:10:02;;;;;;;0.50;0.30;;;16.30;99.90;;;;;;5054079;28;20434;-82
2021/08/29 11:12:32;;;;;;;0.50;0.30;;;16.30;99.90;;;;;;5053435;28;20462;-80
2021/08/29 11:15:00;;;;;;;0.50;0.30;;;16.30;99.90;;;;;;5054586;28;20517;-81
2021/08/29 11:17:29;;;;;;;0.50;0.30;;;16.40;99.90;;;;;;5054638;28;20706;-80
2021/08/29 11:20:08;;;;;;;0.50;0.40;;;16.40;99.90;;;;;;5053865;28;20477;-79
2021/08/29 11:22:38;;;;;;;0.50;0.30;;;16.40;99.90;;;;;;5053892;28;20820;-80
2021/08/29 11:25:16;;;;;;;0.50;0.50;;;16.40;99.90;;;;;;5053557;28;20538;-81
2021/08/29 11:27:49;;;;;;;0.50;0.30;;;16.50;99.90;;;;;;5053892;28;20445;-80
2021/08/29 11:30:17;;;;;;;0.50;0.33;;;16.60;99.90;;;;;;5053464;28;20438;-81
2021/08/29 11:32:47;;;;;;;0.50;0.30;;;16.80;99.90;;;;;;5053935;28;20495;-84
2021/08/29 11:35:15;;;;;;;0.50;0.30;;;17.00;99.90;;;;;;5054389;28;20446;-81
2021/08/29 11:37:43;;;;;;;1.03;0.93;;;17.10;99.90;;;;;;5054122;28;20737;-81
2021/08/29 11:40:12;;;;;;;0.50;0.30;;;17.30;99.90;;;;;;5053380;28;20474;-79
2021/08/29 11:42:40;;;;;;;0.50;0.40;;;17.40;99.90;;;;;;5054134;28;20453;-80
2021/08/29 11:45:12;;;;;;;0.50;0.30;;;17.60;99.90;;;;;;5053991;28;20472;-82
2021/08/29 11:47:41;;;;;;;0.50;0.30;;;17.60;99.90;;;;;;5054082;28;20427;-81
2021/08/29 11:50:11;;;;;;;0.50;0.30;;;17.70;99.90;;;;;;5053793;28;20531;-77
2021/08/29 11:52:39;;;;;;;0.50;0.30;;;17.70;99.90;;;;;;5053867;28;20527;-82
2021/08/29 11:55:09;;;;;;;0.50;0.30;;;17.60;99.90;;;;;;5053297;28;20445;-80
2021/08/29 11:57:55;;;;;;;0.50;0.30;;;17.50;99.90;;;;;;5053722;28;20441;-81
2021/08/29 12:00:25;;;;;;;0.50;0.40;;;17.60;99.90;;;;;;5053500;28;20473;-82
2021/08/29 12:02:54;;;;;;;0.50;0.40;;;17.70;99.90;;;;;;5054692;28;20479;-82
2021/08/29 12:05:22;;;;;;;0.50;0.30;;;17.70;99.90;;;;;;5053808;28;20813;-81
2021/08/29 12:07:58;;;;;;;0.50;0.30;;;17.70;99.90;;;;;;5053574;28;20438;-81
2021/08/29 12:10:25;;;;;;;0.50;0.30;;;17.70;99.90;;;;;;5053248;28;20503;-81
2021/08/29 12:12:55;;;;;;;0.50;0.30;;;17.70;99.90;;;;;;5053353;28;20471;-80
2021/08/29 12:15:25;;;;;;;0.50;0.30;;;17.60;99.90;;;;;;5054304;28;20439;-81
2021/08/29 12:17:57;;;;;;;0.50;0.40;;;17.50;99.90;;;;;;5057552;28;20433;-81
2021/08/29 12:20:26;;;;;;;0.50;0.30;;;17.50;99.90;;;;;;5057010;28;20499;-80
2021/08/29 12:22:54;;;;;;;0.50;0.40;;;17.50;99.90;;;;;;5057303;28;20803;-80
2021/08/29 12:25:22;;;;;;;0.50;0.30;;;17.60;99.90;;;;;;5057209;28;20438;-81
2021/08/29 12:27:50;;;;;;;0.50;0.30;;;17.70;99.90;;;;;;5057507;28;20438;-81
2021/08/29 12:30:19;;;;;;;0.50;0.30;;;17.70;99.90;;;;;;5056859;28;20950;-81
2021/08/29 12:32:46;;;;;;;0.50;0.40;;;17.70;99.90;;;;;;5058128;28;20458;-83
2021/08/29 12:35:13;;;;;;;0.50;0.30;;;17.80;99.90;;;;;;5057649;28;20441;-78
2021/08/29 12:37:43;;;;;;;0.50;0.30;;;17.70;99.90;;;;;;5057232;28;20443;-81
2021/08/29 12:40:12;;;;;;;0.50;0.30;;;17.80;99.90;;;;;;5056107;28;20479;-79
2021/08/29 12:42:40;;;;;;;0.50;0.40;;;17.90;99.90;;;;;;5056285;28;20463;-81
2021/08/29 12:45:09;;;;;;;0.50;0.30;;;18.00;99.90;;;;;;5056636;28;20959;-82
2021/08/29 12:47:40;;;;;;;0.50;0.30;;;18.10;99.90;;;;;;5056141;28;20442;-80
2021/08/29 12:50:10;;;;;;;0.50;0.40;;;18.10;99.90;;;;;;5056358;28;20924;-80
2021/08/29 12:52:41;;;;;;;0.60;0.60;;;18.10;99.90;;;;;;5057092;28;20488;-80
2021/08/29 12:55:11;;;;;;;0.50;0.30;;;18.10;99.90;;;;;;5056179;28;20422;-81